WetterOnline ( https://www.wetteronline.de )

Wetter aktuell Merzig-Wadern

Aktuelles Wetter: Berus (367m)

6-stündlich | Neueste Meldungen
Ortszeit Temperatur Wetter
Fr, 28.01. 19:00 2.3° C bedeckt
Fr, 28.01. 13:00 2.7° C bedeckt
Fr, 28.01. 7:00 2.1° C Nebel
Fr, 28.01. 1:00 1.5° C Nebel
Do, 27.01. 19:00 0.5° C Nebel
Do, 27.01. 13:00 -0.8° C bedeckt
Do, 27.01. 7:00 -1.5° C Nebel
Do, 27.01. 1:00 -2.0° C Nebel
Ortszeit Temperatur Wetter
Sa, 29.01. 0:30 1.4° C Nebel
Sa, 29.01. 0:20 1.4° C Nebel
Sa, 29.01. 0:10 1.4° C Nebel
Sa, 29.01. 0:00 1.5° C Nebel
Fr, 28.01. 23:50 1.5° C Nebel
Fr, 28.01. 23:40 1.5° C Nebel
Fr, 28.01. 23:30 1.6° C Nebel
Fr, 28.01. 23:00 1.8° C Nebel
Fr, 28.01. 22:30 1.9° C bedeckt
Fr, 28.01. 22:00 1.9° C bewölkt
Fr, 28.01. 21:30 2.0° C bewölkt
Ortszeit Relative Feuchte Sichtweite
Fr, 28.01. 19:00 95% 9 km
Fr, 28.01. 13:00 94% 7 km
Fr, 28.01. 7:00 98% 0.2 km
Fr, 28.01. 1:00 98% 0.2 km
Do, 27.01. 19:00 97% 0.4 km
Do, 27.01. 13:00 97% 2.7 km
Do, 27.01. 7:00 96% 0.5 km
Do, 27.01. 1:00 97% 0.6 km
Ortszeit Relative Feuchte Sichtweite
Sa, 29.01. 0:30 98% 100 m
Sa, 29.01. 0:20 98% -
Sa, 29.01. 0:10 98% -
Sa, 29.01. 0:00 98% 100 m
Fr, 28.01. 23:50 98% -
Fr, 28.01. 23:40 98% -
Fr, 28.01. 23:30 98% 0.3 km
Fr, 28.01. 23:00 98% 0.5 km
Fr, 28.01. 22:30 96% 4.9 km
Fr, 28.01. 22:00 97% 3.8 km
Fr, 28.01. 21:30 98% 2.3 km
Ortszeit Niederschlagsmenge Niederschlagsart
Fr, 28.01. 19:00 0.0 l/m2 in 12 Std. -
Fr, 28.01. 13:00 0.0 l/m2 in 6 Std. -
Fr, 28.01. 7:00 0.2 l/m2 in 12 Std. -
Fr, 28.01. 1:00 0.2 l/m2 in 6 Std. Regen
Do, 27.01. 19:00 0.6 l/m2 in 12 Std. Regen
Do, 27.01. 13:00 0.1 l/m2 in 6 Std. Sprühregen
Do, 27.01. 7:00 0.1 l/m2 in 12 Std. Sprühregen
Do, 27.01. 1:00 0.1 l/m2 in 6 Std. Sprühregen
Ortszeit Niederschlagsmenge Niederschlagsart
Sa, 29.01. 0:30 0.0 l/m2 in 1 Std. -
Sa, 29.01. 0:20 keine Meldung -
Sa, 29.01. 0:10 keine Meldung -
Sa, 29.01. 0:00 0.1 l/m2 in 1 Std. Sprühregen
Fr, 28.01. 23:50 keine Meldung -
Fr, 28.01. 23:40 keine Meldung -
Fr, 28.01. 23:30 0.1 l/m2 in 1 Std. -
Fr, 28.01. 23:00 0.1 l/m2 in 1 Std. Sprühregen
Fr, 28.01. 22:30 0.0 l/m2 in 1 Std. -
Fr, 28.01. 22:00 0.0 l/m2 in 1 Std. Sprühregen
Fr, 28.01. 21:30 0.0 l/m2 in 1 Std. -
Ortszeit Stärke Spitze Richtung
km/h Bft. km/h Grad Sektor
Fr, 28.01. 19:00 13 3 26 240° SW
Fr, 28.01. 13:00 14 3 29 280° W
Fr, 28.01. 7:00 11 2 32 260° W
Fr, 28.01. 1:00 22 4 40 270° W
Do, 27.01. 19:00 25 4 43 250° W
Do, 27.01. 13:00 24 4 39 240° SW
Do, 27.01. 7:00 17 3 31 240° SW
Do, 27.01. 1:00 11 2 26 260° W
Ortszeit Stärke Spitze Richtung
km/h Bft. km/h Grad Sektor
Sa, 29.01. 0:30 18 3 32 240° SW
Sa, 29.01. 0:20 18 3 - 240° SW
Sa, 29.01. 0:10 18 3 - 240° SW
Sa, 29.01. 0:00 20 4 31 240° SW
Fr, 28.01. 23:50 20 4 - 240° SW
Fr, 28.01. 23:40 22 4 - 240° SW
Fr, 28.01. 23:30 20 4 31 240° SW
Fr, 28.01. 23:00 17 3 30 240° SW
Fr, 28.01. 22:30 19 3 30 240° SW
Fr, 28.01. 22:00 17 3 28 240° SW
Fr, 28.01. 21:30 14 3 25 240° SW
Ortszeit Untergrenze Bedeckung Gattung
total tief tief mittel hoch
Fr, 28.01. 19:00 150 m 8/8 8/8 - - -
Fr, 28.01. 13:00 120 m 8/8 8/8 - - -
Fr, 28.01. 7:00 30 m 7/8 7/8 - - -
Fr, 28.01. 1:00 <30 m 8/8 0/8 - - -
Do, 27.01. 19:00 <30 m 8/8 0/8 - - -
Do, 27.01. 13:00 60 m 8/8 8/8 - - -
Do, 27.01. 7:00 <30 m 8/8 0/8 - - -
Do, 27.01. 1:00 <30 m 8/8 0/8 - - -
Ortszeit Bedeckungsgrad in Achtel und Wolkenuntergrenze
Sa, 29.01. 0:30 8(<30m)
Sa, 29.01. 0:20 8(<30m)
Sa, 29.01. 0:10 8
Sa, 29.01. 0:00 8(<30m)
Fr, 28.01. 23:50 8(<30m)
Fr, 28.01. 23:40 8
Fr, 28.01. 23:30 8(<30m)
Fr, 28.01. 23:00 8(30m)
Fr, 28.01. 22:30 8(90m)
Fr, 28.01. 22:00 7(60m)
Fr, 28.01. 21:30 7(60m)
Ortszeit Luftdruck NN (hPa) Tendenz (hPa in 3 Std.)
Fr, 28.01. 19:00 1038 + 0,7
Fr, 28.01. 13:00 1038 + 0,4
Fr, 28.01. 7:00 1035 + 1,1
Fr, 28.01. 1:00 1032 + 1,6
Do, 27.01. 19:00 1030 + 0,4
Do, 27.01. 13:00 1031 - 0,8
Do, 27.01. 7:00 1032 - 0,8
Do, 27.01. 1:00 1034 - 0,7
Ortszeit Luftdruck NN (hPa) Tendenz (hPa in 3 Std.)
Sa, 29.01. 0:30 1036 - 1,1
Sa, 29.01. 0:20 1036 keine Meldung
Sa, 29.01. 0:10 1036 keine Meldung
Sa, 29.01. 0:00 1036 - 1,2
Fr, 28.01. 23:50 1036 keine Meldung
Fr, 28.01. 23:40 1036 keine Meldung
Fr, 28.01. 23:30 1036 - 1,0
Fr, 28.01. 23:00 1037 - 0,8
Fr, 28.01. 22:30 1037 - 0,9
Fr, 28.01. 22:00 1037 - 0,9
Fr, 28.01. 21:30 1037 - 0,6
Ortszeit Schneehöhe (cm)
Fr, 28.01. 19:00 0
Fr, 28.01. 13:00 0
Fr, 28.01. 7:00 0
Fr, 28.01. 1:00 0
Do, 27.01. 19:00 0
Do, 27.01. 13:00 0
Do, 27.01. 7:00 0
Do, 27.01. 1:00 0
Ortszeit Schneehöhe (cm)
Sa, 29.01. 0:30 0
Sa, 29.01. 0:20 0
Sa, 29.01. 0:10 0
Sa, 29.01. 0:00 0
Fr, 28.01. 23:50 0
Fr, 28.01. 23:40 0
Fr, 28.01. 23:30 0
Fr, 28.01. 23:00 0
Fr, 28.01. 22:30 0
Fr, 28.01. 22:00 0
Fr, 28.01. 21:30 0
Link zu dieser Seite / Seite empfehlen

Das Wetter in ...